CHH7814 ZSNJ-ZGGG
Flight info
| Callsign | CHH7814 |
|---|---|
| Flight time | 1h 37m |
| Altitude | 34100 |
| Route | K0811S1040 TES52X TESIG A470 DUBGO W134 ELNEX A599 PLT W19 OLPAB OLPAB9 |
| Aircraft | A333/H-SDE3GHIJ2J3J5M1RVWXY/LB2D1 |
Departure
| Time | 2026-05-05 16:52 |
|---|---|
| Airport | Nanjing Lukou International Airport (ZSNJ) |
Arrival
| Time | 2026-05-05 18:30 |
|---|---|
| Airport | Guangzhou Baiyun International Airport (ZGGG) |
| Time | Latitude | Longitude | Altitude | Speed | Heading |
|---|---|---|---|---|---|
| 2026-05-05 16:33 | 31.73238 | 118.87399 | 53 ft | 0 kts | 328° |
| 2026-05-05 16:44 | 31.73233 | 118.87402 | 62 ft | 4 kts | 328° |
| 2026-05-05 16:44 | 31.73210 | 118.87419 | 53 ft | 4 kts | 327° |
| 2026-05-05 16:45 | 31.73188 | 118.87436 | 53 ft | 3 kts | 327° |
| 2026-05-05 16:45 | 31.73167 | 118.87448 | 53 ft | 4 kts | 2° |
| 2026-05-05 16:45 | 31.73148 | 118.87436 | 53 ft | 4 kts | 58° |
| 2026-05-05 16:45 | 31.73138 | 118.87417 | 53 ft | 1 kts | 58° |
| 2026-05-05 16:46 | 31.73136 | 118.87414 | 53 ft | 0 kts | 58° |
| 2026-05-05 16:48 | 31.73143 | 118.87425 | 55 ft | 4 kts | 58° |
| 2026-05-05 16:49 | 31.73163 | 118.87462 | 53 ft | 7 kts | 58° |
| 2026-05-05 16:49 | 31.73191 | 118.87516 | 55 ft | 9 kts | 58° |
| 2026-05-05 16:49 | 31.73229 | 118.87585 | 53 ft | 11 kts | 58° |
| 2026-05-05 16:49 | 31.73273 | 118.87668 | 56 ft | 13 kts | 58° |
| 2026-05-05 16:50 | 31.73324 | 118.87764 | 55 ft | 15 kts | 58° |
| 2026-05-05 16:50 | 31.73319 | 118.87829 | 58 ft | 8 kts | 126° |
| 2026-05-05 16:50 | 31.73271 | 118.87873 | 53 ft | 10 kts | 147° |
| 2026-05-05 16:50 | 31.73216 | 118.87915 | 56 ft | 10 kts | 148° |
| 2026-05-05 16:51 | 31.73155 | 118.87960 | 57 ft | 11 kts | 148° |
| 2026-05-05 16:51 | 31.73080 | 118.87992 | 53 ft | 12 kts | 187° |
| 2026-05-05 16:51 | 31.73017 | 118.87928 | 54 ft | 10 kts | 236° |
| 2026-05-05 16:51 | 31.73005 | 118.87907 | 52 ft | 13 kts | 237° |
| 2026-05-05 16:52 | 31.72915 | 118.87740 | 51 ft | 61 kts | 238° |
| 2026-05-05 16:52 | 31.72401 | 118.86782 | 53 ft | 146 kts | 238° |
| 2026-05-05 16:52 | 31.71773 | 118.85620 | 387 ft | 176 kts | 238° |
| 2026-05-05 16:52 | 31.71351 | 118.84802 | 1020 ft | 169 kts | 237° |
| 2026-05-05 16:53 | 31.70780 | 118.83670 | 2110 ft | 157 kts | 237° |
| 2026-05-05 16:53 | 31.70231 | 118.82568 | 2917 ft | 159 kts | 237° |
| 2026-05-05 16:53 | 31.69621 | 118.81392 | 3407 ft | 182 kts | 237° |
| 2026-05-05 16:53 | 31.68220 | 118.80121 | 4106 ft | 207 kts | 194° |
| 2026-05-05 16:54 | 31.67254 | 118.80088 | 4630 ft | 214 kts | 172° |
| 2026-05-05 16:54 | 31.65893 | 118.80870 | 5509 ft | 227 kts | 147° |
| 2026-05-05 16:54 | 31.64586 | 118.82076 | 6025 ft | 253 kts | 139° |
| 2026-05-05 16:54 | 31.63290 | 118.83586 | 6610 ft | 269 kts | 137° |
| 2026-05-05 16:55 | 31.61978 | 118.85199 | 7423 ft | 277 kts | 135° |
| 2026-05-05 16:55 | 31.60649 | 118.86872 | 8283 ft | 283 kts | 134° |
| 2026-05-05 16:55 | 31.59296 | 118.88587 | 9173 ft | 289 kts | 134° |
| 2026-05-05 16:55 | 31.57917 | 118.90343 | 10027 ft | 296 kts | 133° |
| 2026-05-05 16:56 | 31.56485 | 118.92167 | 10527 ft | 315 kts | 133° |
| 2026-05-05 16:56 | 31.54949 | 118.94124 | 10860 ft | 337 kts | 133° |
| 2026-05-05 16:56 | 31.53307 | 118.96215 | 11171 ft | 359 kts | 133° |
| 2026-05-05 16:56 | 31.51581 | 118.98412 | 11681 ft | 372 kts | 133° |
| 2026-05-05 16:57 | 31.49805 | 119.00674 | 12341 ft | 381 kts | 133° |
| 2026-05-05 16:57 | 31.47996 | 119.02975 | 13051 ft | 387 kts | 133° |
| 2026-05-05 16:57 | 31.46156 | 119.05314 | 13764 ft | 393 kts | 133° |
| 2026-05-05 16:57 | 31.44292 | 119.07683 | 14433 ft | 398 kts | 133° |
| 2026-05-05 16:58 | 31.42424 | 119.10054 | 15091 ft | 403 kts | 133° |
| 2026-05-05 16:58 | 31.40488 | 119.12510 | 15782 ft | 408 kts | 133° |
| 2026-05-05 16:58 | 31.38578 | 119.14931 | 16433 ft | 412 kts | 133° |
| 2026-05-05 16:58 | 31.36621 | 119.17411 | 17105 ft | 417 kts | 133° |
| 2026-05-05 16:59 | 31.34638 | 119.19922 | 17707 ft | 422 kts | 133° |
| 2026-05-05 16:59 | 31.32637 | 119.22454 | 18336 ft | 426 kts | 133° |
| 2026-05-05 16:59 | 31.30614 | 119.25012 | 18892 ft | 430 kts | 133° |
| 2026-05-05 16:59 | 31.28574 | 119.27590 | 19484 ft | 433 kts | 132° |
| 2026-05-05 17:00 | 31.26523 | 119.30180 | 20063 ft | 436 kts | 132° |
| 2026-05-05 17:00 | 31.24455 | 119.32790 | 20626 ft | 439 kts | 131° |
| 2026-05-05 17:00 | 31.22370 | 119.35421 | 21201 ft | 442 kts | 131° |
| 2026-05-05 17:00 | 31.20244 | 119.38035 | 21740 ft | 446 kts | 134° |
| 2026-05-05 17:01 | 31.17908 | 119.40442 | 22255 ft | 450 kts | 139° |
| 2026-05-05 17:01 | 31.15442 | 119.42722 | 22779 ft | 454 kts | 141° |
| 2026-05-05 17:01 | 31.12902 | 119.44942 | 23291 ft | 458 kts | 142° |
| 2026-05-05 17:01 | 31.10347 | 119.47123 | 23758 ft | 462 kts | 142° |
| 2026-05-05 17:02 | 31.07748 | 119.49334 | 24161 ft | 465 kts | 142° |
| 2026-05-05 17:02 | 31.05118 | 119.51582 | 24553 ft | 469 kts | 141° |
| 2026-05-05 17:02 | 31.02480 | 119.53853 | 24957 ft | 473 kts | 141° |
| 2026-05-05 17:02 | 30.99829 | 119.56147 | 25345 ft | 477 kts | 141° |
| 2026-05-05 17:03 | 30.97154 | 119.58470 | 25748 ft | 480 kts | 141° |
| 2026-05-05 17:03 | 30.94472 | 119.60803 | 26157 ft | 484 kts | 141° |
| 2026-05-05 17:03 | 30.91763 | 119.63159 | 26557 ft | 487 kts | 141° |
| 2026-05-05 17:03 | 30.89037 | 119.65530 | 26948 ft | 490 kts | 141° |
| 2026-05-05 17:04 | 30.86294 | 119.67913 | 27348 ft | 493 kts | 141° |
| 2026-05-05 17:04 | 30.83532 | 119.70310 | 27736 ft | 497 kts | 141° |
| 2026-05-05 17:04 | 30.80749 | 119.72722 | 28127 ft | 500 kts | 141° |
| 2026-05-05 17:04 | 30.77989 | 119.75113 | 28547 ft | 502 kts | 141° |
| 2026-05-05 17:05 | 30.75178 | 119.77546 | 28932 ft | 505 kts | 141° |
| 2026-05-05 17:05 | 30.72345 | 119.79996 | 29299 ft | 509 kts | 141° |
| 2026-05-05 17:05 | 30.69495 | 119.82453 | 29678 ft | 512 kts | 141° |
| 2026-05-05 17:05 | 30.66613 | 119.84925 | 30132 ft | 513 kts | 142° |
| 2026-05-05 17:06 | 30.63738 | 119.87386 | 30486 ft | 515 kts | 142° |
| 2026-05-05 17:06 | 30.60849 | 119.89858 | 30858 ft | 515 kts | 142° |
| 2026-05-05 17:06 | 30.58019 | 119.92320 | 31296 ft | 514 kts | 141° |
| 2026-05-05 17:06 | 30.55222 | 119.94800 | 31754 ft | 514 kts | 142° |
| 2026-05-05 17:07 | 30.52251 | 119.97106 | 32161 ft | 514 kts | 150° |
| 2026-05-05 17:07 | 30.49029 | 119.98898 | 32576 ft | 514 kts | 160° |
| 2026-05-05 17:07 | 30.45607 | 120.00047 | 33070 ft | 510 kts | 171° |
| 2026-05-05 17:07 | 30.42097 | 120.00490 | 33509 ft | 506 kts | 181° |
| 2026-05-05 17:08 | 30.38599 | 120.00209 | 33925 ft | 502 kts | 192° |
| 2026-05-05 17:08 | 30.35222 | 119.99242 | 34063 ft | 498 kts | 202° |
| 2026-05-05 17:08 | 30.29084 | 119.95769 | 34079 ft | 489 kts | 213° |
| 2026-05-05 17:09 | 30.23228 | 119.91803 | 34079 ft | 488 kts | 214° |
| 2026-05-05 17:09 | 30.17416 | 119.87830 | 34083 ft | 489 kts | 214° |
| 2026-05-05 17:10 | 30.11532 | 119.83881 | 34083 ft | 489 kts | 213° |
| 2026-05-05 17:10 | 30.05612 | 119.79955 | 34088 ft | 493 kts | 213° |
| 2026-05-05 17:11 | 29.99664 | 119.75983 | 34087 ft | 494 kts | 214° |
| 2026-05-05 17:11 | 29.93750 | 119.72005 | 34095 ft | 493 kts | 214° |
| 2026-05-05 17:12 | 29.87816 | 119.68015 | 34099 ft | 494 kts | 214° |
| 2026-05-05 17:12 | 29.82015 | 119.63884 | 34095 ft | 491 kts | 218° |
| 2026-05-05 17:13 | 29.76397 | 119.59458 | 34102 ft | 488 kts | 219° |
| 2026-05-05 17:13 | 29.70815 | 119.55010 | 34103 ft | 488 kts | 218° |
| 2026-05-05 17:14 | 29.65207 | 119.50568 | 34099 ft | 491 kts | 221° |
| 2026-05-05 17:14 | 29.60237 | 119.45255 | 34105 ft | 486 kts | 231° |
| 2026-05-05 17:15 | 29.55680 | 119.39577 | 34112 ft | 482 kts | 232° |
| 2026-05-05 17:15 | 29.51218 | 119.33847 | 34107 ft | 481 kts | 232° |
| 2026-05-05 17:16 | 29.46752 | 119.28116 | 34107 ft | 481 kts | 232° |
| 2026-05-05 17:16 | 29.42270 | 119.22405 | 34096 ft | 483 kts | 232° |
| 2026-05-05 17:17 | 29.37749 | 119.16668 | 34110 ft | 485 kts | 232° |
| 2026-05-05 17:17 | 29.33244 | 119.10966 | 34098 ft | 485 kts | 232° |
| 2026-05-05 17:18 | 29.28699 | 119.05230 | 34096 ft | 485 kts | 232° |
| 2026-05-05 17:18 | 29.24156 | 118.99504 | 34112 ft | 486 kts | 232° |
| 2026-05-05 17:19 | 29.19618 | 118.93799 | 34101 ft | 484 kts | 233° |
| 2026-05-05 17:19 | 29.15059 | 118.88072 | 34103 ft | 488 kts | 233° |
| 2026-05-05 17:20 | 29.10477 | 118.82326 | 34104 ft | 488 kts | 233° |
| 2026-05-05 17:20 | 29.05896 | 118.76589 | 34101 ft | 489 kts | 233° |
| 2026-05-05 17:21 | 29.01343 | 118.70894 | 34103 ft | 486 kts | 232° |
| 2026-05-05 17:22 | 28.94506 | 118.62371 | 34098 ft | 487 kts | 233° |
| 2026-05-05 17:22 | 28.89904 | 118.56628 | 34099 ft | 491 kts | 233° |
| 2026-05-05 17:23 | 28.85290 | 118.50885 | 34099 ft | 491 kts | 233° |
| 2026-05-05 17:23 | 28.80679 | 118.45162 | 34097 ft | 488 kts | 233° |
| 2026-05-05 17:24 | 28.76097 | 118.39480 | 34093 ft | 486 kts | 233° |
| 2026-05-05 17:24 | 28.71518 | 118.33807 | 34092 ft | 488 kts | 233° |
| 2026-05-05 17:25 | 28.66936 | 118.28130 | 34096 ft | 491 kts | 233° |
| 2026-05-05 17:25 | 28.62303 | 118.22404 | 34089 ft | 491 kts | 233° |
| 2026-05-05 17:26 | 28.57689 | 118.16717 | 34094 ft | 488 kts | 233° |
| 2026-05-05 17:26 | 28.53087 | 118.11048 | 34087 ft | 487 kts | 233° |
| 2026-05-05 17:27 | 28.48484 | 118.05384 | 34085 ft | 488 kts | 233° |
| 2026-05-05 17:27 | 28.43858 | 117.99696 | 34092 ft | 491 kts | 233° |
| 2026-05-05 17:28 | 28.39191 | 117.94035 | 34092 ft | 490 kts | 232° |
| 2026-05-05 17:28 | 28.34503 | 117.88503 | 34106 ft | 489 kts | 232° |
| 2026-05-05 17:29 | 28.29776 | 117.82949 | 34095 ft | 489 kts | 232° |
| 2026-05-05 17:29 | 28.25054 | 117.77395 | 34104 ft | 489 kts | 232° |
| 2026-05-05 17:30 | 28.20327 | 117.71834 | 34102 ft | 489 kts | 232° |
| 2026-05-05 17:30 | 28.15604 | 117.66276 | 34109 ft | 490 kts | 232° |
| 2026-05-05 17:31 | 28.10865 | 117.60725 | 34106 ft | 490 kts | 232° |
| 2026-05-05 17:31 | 28.06126 | 117.55176 | 34093 ft | 490 kts | 232° |
| 2026-05-05 17:32 | 28.01401 | 117.49628 | 34097 ft | 488 kts | 232° |
| 2026-05-05 17:32 | 27.96707 | 117.44122 | 34103 ft | 486 kts | 233° |
| 2026-05-05 17:33 | 27.92010 | 117.38641 | 34110 ft | 488 kts | 233° |
| 2026-05-05 17:33 | 27.87284 | 117.33129 | 34096 ft | 488 kts | 232° |
| 2026-05-05 17:34 | 27.82543 | 117.27629 | 34109 ft | 489 kts | 232° |
| 2026-05-05 17:34 | 27.77843 | 117.22165 | 34105 ft | 486 kts | 233° |
| 2026-05-05 17:35 | 27.73151 | 117.16695 | 34091 ft | 483 kts | 233° |
| 2026-05-05 17:35 | 27.68436 | 117.11219 | 34096 ft | 489 kts | 233° |
| 2026-05-05 17:36 | 27.63680 | 117.05713 | 34099 ft | 490 kts | 233° |
| 2026-05-05 17:36 | 27.58923 | 117.00204 | 34101 ft | 489 kts | 233° |
| 2026-05-05 17:37 | 27.54188 | 116.94750 | 34093 ft | 485 kts | 233° |
| 2026-05-05 17:37 | 27.49494 | 116.89312 | 34104 ft | 484 kts | 233° |
| 2026-05-05 17:38 | 27.44856 | 116.83874 | 34092 ft | 485 kts | 234° |
| 2026-05-05 17:38 | 27.40162 | 116.78365 | 34096 ft | 488 kts | 234° |
| 2026-05-05 17:39 | 27.35451 | 116.72857 | 34085 ft | 487 kts | 233° |
| 2026-05-05 17:39 | 27.30762 | 116.67396 | 34096 ft | 485 kts | 233° |
| 2026-05-05 17:40 | 27.26868 | 116.62863 | 34093 ft | 485 kts | 233° |
| 2026-05-05 17:40 | 27.21395 | 116.56491 | 34082 ft | 485 kts | 234° |
| 2026-05-05 17:41 | 27.17543 | 116.51907 | 34100 ft | 486 kts | 235° |
| 2026-05-05 17:41 | 27.12956 | 116.46332 | 34099 ft | 484 kts | 235° |
| 2026-05-05 17:42 | 27.08392 | 116.40785 | 34096 ft | 483 kts | 235° |
| 2026-05-05 17:42 | 27.03830 | 116.35262 | 34101 ft | 483 kts | 235° |
| 2026-05-05 17:43 | 26.99251 | 116.29735 | 34103 ft | 483 kts | 235° |
| 2026-05-05 17:43 | 26.94671 | 116.24213 | 34096 ft | 484 kts | 235° |
| 2026-05-05 17:44 | 26.90092 | 116.18684 | 34099 ft | 483 kts | 235° |
| 2026-05-05 17:44 | 26.85577 | 116.13193 | 34097 ft | 482 kts | 235° |
| 2026-05-05 17:45 | 26.81032 | 116.07657 | 34104 ft | 482 kts | 235° |
| 2026-05-05 17:45 | 26.76485 | 116.02127 | 34103 ft | 483 kts | 235° |
| 2026-05-05 17:46 | 26.71930 | 115.96597 | 34076 ft | 483 kts | 235° |
| 2026-05-05 17:46 | 26.67383 | 115.91090 | 34097 ft | 481 kts | 235° |
| 2026-05-05 17:47 | 26.62847 | 115.85601 | 34096 ft | 480 kts | 235° |
| 2026-05-05 17:47 | 26.58307 | 115.80111 | 34096 ft | 481 kts | 234° |
| 2026-05-05 17:48 | 26.53795 | 115.74664 | 34094 ft | 481 kts | 235° |
| 2026-05-05 17:48 | 26.49236 | 115.69176 | 34078 ft | 480 kts | 234° |
| 2026-05-05 17:49 | 26.44707 | 115.63722 | 34080 ft | 478 kts | 234° |
| 2026-05-05 17:49 | 26.40178 | 115.58273 | 34094 ft | 479 kts | 234° |
| 2026-05-05 17:50 | 26.35678 | 115.52865 | 34094 ft | 478 kts | 234° |
| 2026-05-05 17:50 | 26.31148 | 115.47428 | 34090 ft | 478 kts | 234° |
| 2026-05-05 17:51 | 26.26618 | 115.41999 | 34062 ft | 478 kts | 234° |
| 2026-05-05 17:51 | 26.22102 | 115.36597 | 34079 ft | 475 kts | 234° |
| 2026-05-05 17:52 | 26.17598 | 115.31213 | 34090 ft | 475 kts | 233° |
| 2026-05-05 17:52 | 26.13093 | 115.25832 | 34082 ft | 475 kts | 233° |
| 2026-05-05 17:53 | 26.08615 | 115.20493 | 34083 ft | 475 kts | 233° |
| 2026-05-05 17:53 | 26.04099 | 115.15117 | 34086 ft | 475 kts | 233° |
| 2026-05-05 17:54 | 25.99586 | 115.09748 | 34084 ft | 475 kts | 233° |
| 2026-05-05 17:54 | 25.95069 | 115.04381 | 34087 ft | 475 kts | 233° |
| 2026-05-05 17:55 | 25.90548 | 114.99016 | 34074 ft | 475 kts | 233° |
| 2026-05-05 17:55 | 25.86052 | 114.93684 | 34080 ft | 476 kts | 233° |
| 2026-05-05 17:56 | 25.80991 | 114.88856 | 34068 ft | 489 kts | 218° |
| 2026-05-05 17:56 | 25.77944 | 114.87110 | 34080 ft | 497 kts | 207° |
| 2026-05-05 17:56 | 25.74639 | 114.85921 | 34080 ft | 501 kts | 201° |
| 2026-05-05 17:57 | 25.67829 | 114.84102 | 34082 ft | 505 kts | 198° |
| 2026-05-05 17:57 | 25.60952 | 114.82483 | 34080 ft | 505 kts | 197° |
| 2026-05-05 17:58 | 25.54083 | 114.80845 | 34071 ft | 505 kts | 198° |
| 2026-05-05 17:58 | 25.47233 | 114.79167 | 34087 ft | 503 kts | 198° |
| 2026-05-05 17:59 | 25.40440 | 114.77486 | 34088 ft | 503 kts | 198° |
| 2026-05-05 17:59 | 25.33611 | 114.75795 | 34088 ft | 503 kts | 198° |
| 2026-05-05 18:00 | 25.26774 | 114.74106 | 34082 ft | 503 kts | 198° |
| 2026-05-05 18:00 | 25.19963 | 114.72428 | 34095 ft | 501 kts | 198° |
| 2026-05-05 18:01 | 25.13155 | 114.70750 | 34089 ft | 500 kts | 198° |
| 2026-05-05 18:01 | 25.06367 | 114.69079 | 34091 ft | 500 kts | 198° |
| 2026-05-05 18:02 | 24.99566 | 114.67409 | 34083 ft | 500 kts | 198° |
| 2026-05-05 18:02 | 24.92833 | 114.65759 | 34101 ft | 498 kts | 198° |
| 2026-05-05 18:03 | 24.86079 | 114.64105 | 34088 ft | 497 kts | 198° |
| 2026-05-05 18:03 | 24.79323 | 114.62443 | 34099 ft | 497 kts | 198° |
| 2026-05-05 18:04 | 24.72574 | 114.60737 | 34090 ft | 494 kts | 202° |
| 2026-05-05 18:04 | 24.66353 | 114.57809 | 34099 ft | 482 kts | 214° |
| 2026-05-05 18:05 | 24.60506 | 114.54235 | 34104 ft | 481 kts | 216° |
| 2026-05-05 18:05 | 24.54727 | 114.50540 | 34102 ft | 480 kts | 216° |
| 2026-05-05 18:06 | 24.48982 | 114.46878 | 34101 ft | 480 kts | 216° |
| 2026-05-05 18:06 | 24.43201 | 114.43220 | 34100 ft | 479 kts | 216° |
| 2026-05-05 18:07 | 24.37427 | 114.39593 | 34098 ft | 477 kts | 216° |
| 2026-05-05 18:07 | 24.31657 | 114.35979 | 34097 ft | 478 kts | 216° |
| 2026-05-05 18:08 | 24.25880 | 114.32361 | 34094 ft | 478 kts | 216° |
| 2026-05-05 18:08 | 24.20112 | 114.28752 | 34092 ft | 477 kts | 216° |
| 2026-05-05 18:09 | 24.14345 | 114.25152 | 34093 ft | 475 kts | 216° |
| 2026-05-05 18:09 | 24.09080 | 114.20974 | 34097 ft | 461 kts | 231° |
| 2026-05-05 18:09 | 24.07020 | 114.18334 | 33948 ft | 451 kts | 240° |
| 2026-05-05 18:10 | 24.05383 | 114.15433 | 33198 ft | 446 kts | 246° |
| 2026-05-05 18:10 | 24.03931 | 114.12438 | 32353 ft | 448 kts | 248° |
| 2026-05-05 18:10 | 24.02491 | 114.09399 | 31461 ft | 451 kts | 248° |
| 2026-05-05 18:10 | 24.01055 | 114.06390 | 30628 ft | 454 kts | 247° |
| 2026-05-05 18:11 | 23.99588 | 114.03335 | 29955 ft | 452 kts | 247° |
| 2026-05-05 18:11 | 23.98121 | 114.00293 | 29214 ft | 450 kts | 247° |
| 2026-05-05 18:11 | 23.96666 | 113.97280 | 28549 ft | 446 kts | 246° |
| 2026-05-05 18:11 | 23.95223 | 113.94299 | 27948 ft | 442 kts | 246° |
| 2026-05-05 18:12 | 23.93789 | 113.91344 | 27306 ft | 438 kts | 246° |
| 2026-05-05 18:12 | 23.92368 | 113.88416 | 26674 ft | 435 kts | 245° |
| 2026-05-05 18:12 | 23.90953 | 113.85504 | 26003 ft | 433 kts | 245° |
| 2026-05-05 18:12 | 23.89542 | 113.82603 | 25388 ft | 430 kts | 245° |
| 2026-05-05 18:13 | 23.88141 | 113.79724 | 24795 ft | 427 kts | 245° |
| 2026-05-05 18:13 | 23.86752 | 113.76870 | 24195 ft | 425 kts | 244° |
| 2026-05-05 18:13 | 23.85369 | 113.74028 | 23601 ft | 422 kts | 244° |
| 2026-05-05 18:13 | 23.83991 | 113.71198 | 22906 ft | 420 kts | 244° |
| 2026-05-05 18:14 | 23.82624 | 113.68395 | 22309 ft | 416 kts | 244° |
| 2026-05-05 18:14 | 23.81257 | 113.65628 | 21725 ft | 412 kts | 242° |
| 2026-05-05 18:14 | 23.79643 | 113.63060 | 21144 ft | 410 kts | 231° |
| 2026-05-05 18:14 | 23.77584 | 113.60922 | 20559 ft | 409 kts | 219° |
| 2026-05-05 18:15 | 23.75235 | 113.59184 | 19992 ft | 406 kts | 214° |
| 2026-05-05 18:15 | 23.72851 | 113.57568 | 19427 ft | 402 kts | 214° |
| 2026-05-05 18:15 | 23.70482 | 113.55979 | 18892 ft | 397 kts | 214° |
| 2026-05-05 18:15 | 23.68139 | 113.54402 | 18332 ft | 394 kts | 214° |
| 2026-05-05 18:16 | 23.65819 | 113.52836 | 17704 ft | 391 kts | 214° |
| 2026-05-05 18:16 | 23.63519 | 113.51279 | 17083 ft | 386 kts | 214° |
| 2026-05-05 18:16 | 23.61247 | 113.49744 | 16479 ft | 383 kts | 213° |
| 2026-05-05 18:16 | 23.58873 | 113.48456 | 15884 ft | 382 kts | 202° |
| 2026-05-05 18:17 | 23.56332 | 113.47622 | 15287 ft | 380 kts | 197° |
| 2026-05-05 18:17 | 23.53784 | 113.46925 | 14704 ft | 376 kts | 196° |
| 2026-05-05 18:17 | 23.51256 | 113.46252 | 14158 ft | 372 kts | 196° |
| 2026-05-05 18:17 | 23.48758 | 113.45585 | 13574 ft | 369 kts | 196° |
| 2026-05-05 18:18 | 23.46308 | 113.44927 | 12936 ft | 365 kts | 196° |
| 2026-05-05 18:18 | 23.43821 | 113.44256 | 12308 ft | 362 kts | 196° |
| 2026-05-05 18:18 | 23.41392 | 113.43599 | 11703 ft | 358 kts | 196° |
| 2026-05-05 18:18 | 23.39018 | 113.42957 | 11123 ft | 354 kts | 196° |
| 2026-05-05 18:19 | 23.36636 | 113.42312 | 10534 ft | 351 kts | 196° |
| 2026-05-05 18:19 | 23.34301 | 113.41680 | 9952 ft | 348 kts | 196° |
| 2026-05-05 18:19 | 23.31980 | 113.41053 | 9574 ft | 338 kts | 196° |
| 2026-05-05 18:19 | 23.29744 | 113.40450 | 9351 ft | 324 kts | 196° |
| 2026-05-05 18:20 | 23.27613 | 113.39877 | 9130 ft | 306 kts | 196° |
| 2026-05-05 18:20 | 23.25608 | 113.39339 | 8744 ft | 289 kts | 196° |
| 2026-05-05 18:20 | 23.23690 | 113.38819 | 8218 ft | 281 kts | 196° |
| 2026-05-05 18:20 | 23.21813 | 113.38311 | 7642 ft | 275 kts | 196° |
| 2026-05-05 18:21 | 23.19967 | 113.37806 | 7081 ft | 271 kts | 196° |
| 2026-05-05 18:21 | 23.18169 | 113.37306 | 6702 ft | 259 kts | 196° |
| 2026-05-05 18:21 | 23.16487 | 113.36831 | 6495 ft | 240 kts | 196° |
| 2026-05-05 18:21 | 23.14991 | 113.36406 | 6298 ft | 221 kts | 196° |
| 2026-05-05 18:22 | 23.13534 | 113.35991 | 5911 ft | 213 kts | 196° |
| 2026-05-05 18:22 | 23.12115 | 113.35580 | 5470 ft | 211 kts | 196° |
| 2026-05-05 18:22 | 23.11184 | 113.35278 | 5168 ft | 209 kts | 202° |
| 2026-05-05 18:22 | 23.09978 | 113.34070 | 4809 ft | 201 kts | 242° |
| 2026-05-05 18:23 | 23.09568 | 113.32658 | 4585 ft | 193 kts | 255° |
| 2026-05-05 18:23 | 23.09500 | 113.31216 | 4237 ft | 193 kts | 272° |
| 2026-05-05 18:23 | 23.09686 | 113.29772 | 3883 ft | 193 kts | 278° |
| 2026-05-05 18:23 | 23.10286 | 113.28473 | 3487 ft | 198 kts | 311° |
| 2026-05-05 18:24 | 23.11358 | 113.27563 | 3210 ft | 198 kts | 325° |
| 2026-05-05 18:24 | 23.12510 | 113.26769 | 2999 ft | 197 kts | 327° |
| 2026-05-05 18:24 | 23.13678 | 113.25978 | 2959 ft | 198 kts | 327° |
| 2026-05-05 18:24 | 23.14890 | 113.25281 | 2954 ft | 198 kts | 344° |
| 2026-05-05 18:25 | 23.16260 | 113.25210 | 2962 ft | 198 kts | 7° |
| 2026-05-05 18:25 | 23.16700 | 113.25290 | 2963 ft | 198 kts | 12° |
| 2026-05-05 18:25 | 23.18939 | 113.25907 | 2961 ft | 198 kts | 14° |
| 2026-05-05 18:25 | 23.20275 | 113.26275 | 2961 ft | 198 kts | 14° |
| 2026-05-05 18:26 | 23.21601 | 113.26639 | 2966 ft | 198 kts | 14° |
| 2026-05-05 18:26 | 23.22923 | 113.26998 | 2867 ft | 198 kts | 14° |
| 2026-05-05 18:26 | 23.24257 | 113.27355 | 2609 ft | 197 kts | 14° |
| 2026-05-05 18:26 | 23.25572 | 113.27707 | 2326 ft | 195 kts | 15° |
| 2026-05-05 18:27 | 23.26878 | 113.28059 | 2065 ft | 193 kts | 15° |
| 2026-05-05 18:27 | 23.28165 | 113.28405 | 1808 ft | 185 kts | 15° |
| 2026-05-05 18:27 | 23.29343 | 113.28723 | 1577 ft | 168 kts | 15° |
| 2026-05-05 18:27 | 23.30434 | 113.29018 | 1352 ft | 154 kts | 15° |
| 2026-05-05 18:28 | 23.32354 | 113.29535 | 994 ft | 136 kts | 14° |
| 2026-05-05 18:28 | 23.33266 | 113.29780 | 821 ft | 134 kts | 14° |
| 2026-05-05 18:28 | 23.34172 | 113.30011 | 662 ft | 133 kts | 14° |
| 2026-05-05 18:29 | 23.35069 | 113.30257 | 478 ft | 133 kts | 15° |
| 2026-05-05 18:29 | 23.35965 | 113.30494 | 309 ft | 132 kts | 14° |
| 2026-05-05 18:29 | 23.36854 | 113.30736 | 135 ft | 131 kts | 15° |
| 2026-05-05 18:29 | 23.37727 | 113.30977 | 57 ft | 121 kts | 13° |
| 2026-05-05 18:30 | 23.38185 | 113.31102 | 57 ft | 84 kts | 14° |
| 2026-05-05 18:30 | 23.38570 | 113.31205 | 56 ft | 42 kts | 13° |
| 2026-05-05 18:30 | 23.38810 | 113.31270 | 57 ft | 23 kts | 13° |
| 2026-05-05 18:30 | 23.38974 | 113.31300 | 54 ft | 25 kts | 359° |
| 2026-05-05 18:31 | 23.39113 | 113.31274 | 57 ft | 17 kts | 346° |
| 2026-05-05 18:31 | 23.39232 | 113.31242 | 56 ft | 19 kts | 346° |
| 2026-05-05 18:31 | 23.39365 | 113.31223 | 57 ft | 20 kts | 6° |
| 2026-05-05 18:31 | 23.39480 | 113.31252 | 57 ft | 17 kts | 14° |
| 2026-05-05 18:32 | 23.39601 | 113.31284 | 55 ft | 19 kts | 14° |
| 2026-05-05 18:32 | 23.39733 | 113.31319 | 55 ft | 21 kts | 14° |
| 2026-05-05 18:32 | 23.39876 | 113.31358 | 55 ft | 21 kts | 14° |
| 2026-05-05 18:32 | 23.40012 | 113.31395 | 57 ft | 20 kts | 14° |
| 2026-05-05 18:33 | 23.40156 | 113.31434 | 55 ft | 22 kts | 13° |
| 2026-05-05 18:33 | 23.40289 | 113.31463 | 58 ft | 15 kts | 350° |
| 2026-05-05 18:33 | 23.40339 | 113.31379 | 57 ft | 14 kts | 284° |
| 2026-05-05 18:33 | 23.40365 | 113.31266 | 54 ft | 18 kts | 284° |
| 2026-05-05 18:34 | 23.40394 | 113.31138 | 56 ft | 18 kts | 284° |
| 2026-05-05 18:34 | 23.40405 | 113.31011 | 57 ft | 16 kts | 243° |
| 2026-05-05 18:34 | 23.40309 | 113.30970 | 57 ft | 16 kts | 188° |
| 2026-05-05 18:34 | 23.40196 | 113.30941 | 55 ft | 18 kts | 194° |
| 2026-05-05 18:35 | 23.40076 | 113.30909 | 57 ft | 19 kts | 194° |
| 2026-05-05 18:35 | 23.39941 | 113.30873 | 59 ft | 21 kts | 194° |
| 2026-05-05 18:35 | 23.39792 | 113.30832 | 55 ft | 22 kts | 194° |
| 2026-05-05 18:35 | 23.39649 | 113.30793 | 56 ft | 22 kts | 194° |
| 2026-05-05 18:36 | 23.39492 | 113.30751 | 55 ft | 24 kts | 194° |
| 2026-05-05 18:36 | 23.39348 | 113.30712 | 60 ft | 19 kts | 194° |
| 2026-05-05 18:36 | 23.39234 | 113.30666 | 56 ft | 15 kts | 231° |
| 2026-05-05 18:36 | 23.39210 | 113.30583 | 61 ft | 5 kts | 233° |
| 2026-05-05 18:37 | 23.39179 | 113.30568 | 61 ft | 6 kts | 198° |
| 2026-05-05 18:37 | 23.39119 | 113.30550 | 54 ft | 11 kts | 194° |
| 2026-05-05 18:37 | 23.39041 | 113.30529 | 56 ft | 12 kts | 193° |
| 2026-05-05 18:37 | 23.38990 | 113.30490 | 59 ft | 8 kts | 257° |
| 2026-05-05 18:38 | 23.39017 | 113.30437 | 56 ft | 9 kts | 330° |
| 2026-05-05 18:38 | 23.39062 | 113.30422 | 53 ft | 6 kts | 337° |
| 2026-05-05 18:38 | 23.39084 | 113.30410 | 54 ft | 1 kts | 334° |
| 2026-05-05 18:38 | 23.39085 | 113.30410 | 54 ft | 0 kts | 334° |